Dades de l'estació automàtica Port de Barcelona - Bocana Sud

?
?
Resum diari 14:00 TU
Dades diàries de l'estació meteorològica
Ratxa màxima del vent (10 m) 26.3 km/h - 51º 6:55 TU

El tram horari està expressat en Temps Universal (TU). Cal sumar una hora en horari d'hivern i dues en horari d'estiu per passar a l'hora oficial.

Port de Barcelona - Bocana Sud

Metadades estació meteorol´gica
Municipi El Prat de Llobregat
Comarca Baix Llobregat
Altitud 3 m
Data alta 08.04.2015
Estat actual Operativa
Dades de període
Període
TU
VVM (10 m)
km/h
DVM (10 m)
graus
VVX (10 m)
km/h
00:00 - 00:30 3.2 190 5.0
00:30 - 01:00 3.2 191 5.4
01:00 - 01:30 0.4 195 1.4
01:30 - 02:00 1.1 213 4.3
02:00 - 02:30 4.7 51 7.9
02:30 - 03:00 8.6 36 10.4
03:00 - 03:30 4.0 349 8.6
03:30 - 04:00 5.0 304 7.9
04:00 - 04:30 6.1 273 9.0
04:30 - 05:00 6.8 274 9.0
05:00 - 05:30 7.2 283 9.7
05:30 - 06:00 3.6 311 6.5
06:00 - 06:30 4.0 13 8.3
06:30 - 07:00 13.7 52 26.3
07:00 - 07:30 16.9 50 22.7
07:30 - 08:00 11.9 55 17.6
08:00 - 08:30 9.7 69 15.8
08:30 - 09:00 14.4 75 19.1
09:00 - 09:30 15.8 72 21.6
09:30 - 10:00 17.3 72 22.7
10:00 - 10:30 19.4 85 23.8
10:30 - 11:00 20.5 92 23.0
11:00 - 11:30 19.8 90 22.0
11:30 - 12:00 18.0 87 21.2
12:00 - 12:30 17.6 84 20.5
12:30 - 13:00 17.6 87 20.5
13:00 - 13:30 16.6 94 19.4
13:30 - 14:00 14.4 110 17.6
14:00 - 14:30 12.2 120 15.5
14:30 - 15:00 (s/d) (s/d) (s/d)

Les dades en taronja només han passat un control de qualitat automàtic. Resta pendent la seva validació definitiva.